sensor_id;sensor_type;location;lat;lon;timestamp;temperature;humidity
1461;DHT22;724;49.910;12.530;2022-11-12T00:00:49;5.80;99.90
1461;DHT22;724;49.910;12.530;2022-11-12T00:03:16;5.80;99.90
1461;DHT22;724;49.910;12.530;2022-11-12T00:05:43;5.80;99.90
1461;DHT22;724;49.910;12.530;2022-11-12T00:08:10;5.90;99.90
1461;DHT22;724;49.910;12.530;2022-11-12T00:10:37;5.90;99.90
1461;DHT22;724;49.910;12.530;2022-11-12T00:13:06;5.80;92.60
1461;DHT22;724;49.910;12.530;2022-11-12T00:15:33;5.90;23.60
1461;DHT22;724;49.910;12.530;2022-11-12T00:18:00;5.90;1.00
1461;DHT22;724;49.910;12.530;2022-11-12T00:20:26;5.90;1.00
1461;DHT22;724;49.910;12.530;2022-11-12T00:22:53;5.90;1.00
1461;DHT22;724;49.910;12.530;2022-11-12T00:25:20;5.90;1.00
1461;DHT22;724;49.910;12.530;2022-11-12T00:27:46;5.90;1.00
1461;DHT22;724;49.910;12.530;2022-11-12T00:30:15;6.00;1.00
1461;DHT22;724;49.910;12.530;2022-11-12T00:32:42;6.00;1.00
1461;DHT22;724;49.910;12.530;2022-11-12T00:35:09;6.10;1.00
1461;DHT22;724;49.910;12.530;2022-11-12T00:37:36;6.00;1.00
1461;DHT22;724;49.910;12.530;2022-11-12T00:40:04;6.00;1.00
1461;DHT22;724;49.910;12.530;2022-11-12T00:42:31;6.00;1.00
1461;DHT22;724;49.910;12.530;2022-11-12T00:44:58;6.00;1.00
1461;DHT22;724;49.910;12.530;2022-11-12T00:47:26;6.00;1.00
1461;DHT22;724;49.910;12.530;2022-11-12T00:49:53;6.00;1.00
1461;DHT22;724;49.910;12.530;2022-11-12T00:52:19;6.00;1.00
1461;DHT22;724;49.910;12.530;2022-11-12T00:54:46;6.10;1.00
1461;DHT22;724;49.910;12.530;2022-11-12T00:57:13;6.10;1.00
1461;DHT22;724;49.910;12.530;2022-11-12T00:59:40;6.10;1.00
1461;DHT22;724;49.910;12.530;2022-11-12T01:02:06;6.10;1.00
1461;DHT22;724;49.910;12.530;2022-11-12T01:04:35;6.10;1.00
1461;DHT22;724;49.910;12.530;2022-11-12T01:07:01;6.10;1.00
1461;DHT22;724;49.910;12.530;2022-11-12T01:09:28;6.20;1.00
1461;DHT22;724;49.910;12.530;2022-11-12T01:11:55;6.10;1.00
1461;DHT22;724;49.910;12.530;2022-11-12T01:14:22;6.10;1.00
1461;DHT22;724;49.910;12.530;2022-11-12T01:16:48;6.10;1.00
1461;DHT22;724;49.910;12.530;2022-11-12T01:19:15;6.00;1.00
1461;DHT22;724;49.910;12.530;2022-11-12T01:21:43;6.00;1.00
1461;DHT22;724;49.910;12.530;2022-11-12T01:24:11;5.90;1.00
1461;DHT22;724;49.910;12.530;2022-11-12T01:26:38;5.90;1.00
1461;DHT22;724;49.910;12.530;2022-11-12T01:29:05;5.90;1.00
1461;DHT22;724;49.910;12.530;2022-11-12T01:31:33;5.80;1.00
1461;DHT22;724;49.910;12.530;2022-11-12T01:34:03;5.90;1.00
1461;DHT22;724;49.910;12.530;2022-11-12T01:36:32;5.90;1.00
1461;DHT22;724;49.910;12.530;2022-11-12T01:39:01;5.90;1.00
1461;DHT22;724;49.910;12.530;2022-11-12T01:41:31;5.90;1.00
1461;DHT22;724;49.910;12.530;2022-11-12T01:44:14;5.90;1.00
1461;DHT22;724;49.910;12.530;2022-11-12T01:46:48;5.90;1.00
1461;DHT22;724;49.910;12.530;2022-11-12T01:49:19;5.90;1.00
1461;DHT22;724;49.910;12.530;2022-11-12T01:51:48;5.80;1.00
1461;DHT22;724;49.910;12.530;2022-11-12T01:54:19;5.80;1.00
1461;DHT22;724;49.910;12.530;2022-11-12T01:56:47;5.80;1.00
1461;DHT22;724;49.910;12.530;2022-11-12T01:59:19;5.80;1.00
1461;DHT22;724;49.910;12.530;2022-11-12T02:01:47;5.80;1.00
1461;DHT22;724;49.910;12.530;2022-11-12T02:04:14;5.70;1.00
1461;DHT22;724;49.910;12.530;2022-11-12T02:06:42;5.50;1.00
1461;DHT22;724;49.910;12.530;2022-11-12T02:09:10;5.30;1.00
1461;DHT22;724;49.910;12.530;2022-11-12T02:11:40;5.20;1.00
1461;DHT22;724;49.910;12.530;2022-11-12T02:14:06;5.10;1.00
1461;DHT22;724;49.910;12.530;2022-11-12T02:16:35;5.10;1.00
1461;DHT22;724;49.910;12.530;2022-11-12T02:19:04;5.10;14.10
1461;DHT22;724;49.910;12.530;2022-11-12T02:21:33;5.10;99.90
1461;DHT22;724;49.910;12.530;2022-11-12T02:24:02;5.10;99.90
1461;DHT22;724;49.910;12.530;2022-11-12T02:26:31;5.10;99.90
1461;DHT22;724;49.910;12.530;2022-11-12T02:28:59;4.90;94.70
1461;DHT22;724;49.910;12.530;2022-11-12T02:31:26;4.80;99.90
1461;DHT22;724;49.910;12.530;2022-11-12T02:33:52;4.80;99.90
1461;DHT22;724;49.910;12.530;2022-11-12T02:36:20;4.70;99.90
1461;DHT22;724;49.910;12.530;2022-11-12T02:38:48;4.70;99.90
1461;DHT22;724;49.910;12.530;2022-11-12T02:41:15;4.80;99.90
1461;DHT22;724;49.910;12.530;2022-11-12T02:43:43;4.80;1.00
1461;DHT22;724;49.910;12.530;2022-11-12T02:46:10;4.90;1.00
1461;DHT22;724;49.910;12.530;2022-11-12T02:48:37;4.80;1.00
1461;DHT22;724;49.910;12.530;2022-11-12T02:51:05;4.80;1.00
1461;DHT22;724;49.910;12.530;2022-11-12T02:53:32;4.70;1.00
1461;DHT22;724;49.910;12.530;2022-11-12T02:56:04;4.70;1.00
1461;DHT22;724;49.910;12.530;2022-11-12T02:58:32;4.70;99.90
1461;DHT22;724;49.910;12.530;2022-11-12T03:00:59;4.70;99.90
1461;DHT22;724;49.910;12.530;2022-11-12T03:03:26;4.70;99.90
1461;DHT22;724;49.910;12.530;2022-11-12T03:05:57;4.70;99.90
1461;DHT22;724;49.910;12.530;2022-11-12T03:08:25;4.70;99.90
1461;DHT22;724;49.910;12.530;2022-11-12T03:10:52;4.60;99.90
1461;DHT22;724;49.910;12.530;2022-11-12T03:13:21;4.50;99.90
1461;DHT22;724;49.910;12.530;2022-11-12T03:15:47;4.60;99.90
1461;DHT22;724;49.910;12.530;2022-11-12T03:18:14;4.60;99.90
1461;DHT22;724;49.910;12.530;2022-11-12T03:20:41;4.50;99.90
1461;DHT22;724;49.910;12.530;2022-11-12T03:23:10;4.50;99.90
1461;DHT22;724;49.910;12.530;2022-11-12T03:25:37;4.40;99.90
1461;DHT22;724;49.910;12.530;2022-11-12T03:28:05;4.40;99.90
1461;DHT22;724;49.910;12.530;2022-11-12T03:30:35;4.30;99.90
1461;DHT22;724;49.910;12.530;2022-11-12T03:33:03;4.20;99.90
1461;DHT22;724;49.910;12.530;2022-11-12T03:35:30;4.20;1.00
1461;DHT22;724;49.910;12.530;2022-11-12T03:37:58;4.10;99.90
1461;DHT22;724;49.910;12.530;2022-11-12T03:40:25;4.10;99.90
1461;DHT22;724;49.910;12.530;2022-11-12T03:42:52;4.00;99.90
1461;DHT22;724;49.910;12.530;2022-11-12T03:45:21;4.00;99.90
1461;DHT22;724;49.910;12.530;2022-11-12T03:47:52;4.00;99.90
1461;DHT22;724;49.910;12.530;2022-11-12T03:50:20;4.00;99.90
1461;DHT22;724;49.910;12.530;2022-11-12T03:52:49;4.00;99.90
1461;DHT22;724;49.910;12.530;2022-11-12T03:55:19;3.90;99.90
1461;DHT22;724;49.910;12.530;2022-11-12T03:57:47;3.90;99.90
1461;DHT22;724;49.910;12.530;2022-11-12T04:00:15;4.00;99.90
1461;DHT22;724;49.910;12.530;2022-11-12T04:02:42;3.90;99.90
1461;DHT22;724;49.910;12.530;2022-11-12T04:05:11;3.90;99.90
1461;DHT22;724;49.910;12.530;2022-11-12T04:07:57;3.80;99.90
1461;DHT22;724;49.910;12.530;2022-11-12T04:10:42;3.80;99.90
1461;DHT22;724;49.910;12.530;2022-11-12T04:13:09;3.80;99.90
1461;DHT22;724;49.910;12.530;2022-11-12T04:15:55;3.70;99.90
1461;DHT22;724;49.910;12.530;2022-11-12T04:18:39;3.60;99.90
1461;DHT22;724;49.910;12.530;2022-11-12T04:21:29;3.50;1.00
1461;DHT22;724;49.910;12.530;2022-11-12T04:24:14;3.40;1.00
1461;DHT22;724;49.910;12.530;2022-11-12T04:26:54;3.50;1.00
1461;DHT22;724;49.910;12.530;2022-11-12T04:29:21;3.40;1.00
1461;DHT22;724;49.910;12.530;2022-11-12T04:32:06;3.40;1.00
1461;DHT22;724;49.910;12.530;2022-11-12T04:34:32;3.30;1.00
1461;DHT22;724;49.910;12.530;2022-11-12T04:37:01;3.30;1.00
1461;DHT22;724;49.910;12.530;2022-11-12T04:39:29;3.30;1.00
1461;DHT22;724;49.910;12.530;2022-11-12T04:41:56;3.20;1.00
1461;DHT22;724;49.910;12.530;2022-11-12T04:44:43;3.10;1.00
1461;DHT22;724;49.910;12.530;2022-11-12T04:47:33;3.10;1.00
1461;DHT22;724;49.910;12.530;2022-11-12T04:50:02;3.10;1.00
1461;DHT22;724;49.910;12.530;2022-11-12T04:52:31;3.10;1.00
1461;DHT22;724;49.910;12.530;2022-11-12T04:54:58;3.10;1.00
1461;DHT22;724;49.910;12.530;2022-11-12T04:57:26;3.00;1.00
1461;DHT22;724;49.910;12.530;2022-11-12T04:59:54;3.00;1.00
1461;DHT22;724;49.910;12.530;2022-11-12T05:02:21;2.90;1.00
1461;DHT22;724;49.910;12.530;2022-11-12T05:04:48;2.80;1.00
1461;DHT22;724;49.910;12.530;2022-11-12T05:07:15;2.80;1.00
1461;DHT22;724;49.910;12.530;2022-11-12T05:09:43;2.70;1.00
1461;DHT22;724;49.910;12.530;2022-11-12T05:12:11;2.80;1.00
1461;DHT22;724;49.910;12.530;2022-11-12T05:14:37;2.70;1.00
1461;DHT22;724;49.910;12.530;2022-11-12T05:17:05;2.70;1.00
1461;DHT22;724;49.910;12.530;2022-11-12T05:19:31;2.80;1.00
1461;DHT22;724;49.910;12.530;2022-11-12T05:22:00;2.80;1.00
1461;DHT22;724;49.910;12.530;2022-11-12T05:24:34;2.70;1.00
1461;DHT22;724;49.910;12.530;2022-11-12T05:27:06;2.70;99.90
1461;DHT22;724;49.910;12.530;2022-11-12T05:29:34;2.80;99.90
1461;DHT22;724;49.910;12.530;2022-11-12T05:32:01;2.70;99.90
1461;DHT22;724;49.910;12.530;2022-11-12T05:34:27;2.70;1.00
1461;DHT22;724;49.910;12.530;2022-11-12T05:36:54;2.60;1.00
1461;DHT22;724;49.910;12.530;2022-11-12T05:39:22;2.60;1.00
1461;DHT22;724;49.910;12.530;2022-11-12T05:41:49;2.50;1.00
1461;DHT22;724;49.910;12.530;2022-11-12T05:44:18;2.40;1.00
1461;DHT22;724;49.910;12.530;2022-11-12T05:46:44;2.40;1.00
1461;DHT22;724;49.910;12.530;2022-11-12T05:49:11;2.50;99.90
1461;DHT22;724;49.910;12.530;2022-11-12T05:51:38;2.50;99.90
1461;DHT22;724;49.910;12.530;2022-11-12T05:54:05;2.50;99.90
1461;DHT22;724;49.910;12.530;2022-11-12T05:56:32;2.50;99.90
1461;DHT22;724;49.910;12.530;2022-11-12T05:59:00;2.40;99.90
1461;DHT22;724;49.910;12.530;2022-11-12T06:01:28;2.30;99.90
1461;DHT22;724;49.910;12.530;2022-11-12T06:03:55;2.20;99.90
1461;DHT22;724;49.910;12.530;2022-11-12T06:06:22;2.20;1.00
1461;DHT22;724;49.910;12.530;2022-11-12T06:08:49;2.20;1.00
1461;DHT22;724;49.910;12.530;2022-11-12T06:11:16;2.20;1.00
1461;DHT22;724;49.910;12.530;2022-11-12T06:13:43;2.20;1.00
1461;DHT22;724;49.910;12.530;2022-11-12T06:16:10;2.10;1.00
1461;DHT22;724;49.910;12.530;2022-11-12T06:18:38;2.10;1.00
1461;DHT22;724;49.910;12.530;2022-11-12T06:21:06;2.20;1.00
1461;DHT22;724;49.910;12.530;2022-11-12T06:23:47;2.10;1.00
1461;DHT22;724;49.910;12.530;2022-11-12T06:26:14;2.10;1.00
1461;DHT22;724;49.910;12.530;2022-11-12T06:28:41;2.20;1.00
1461;DHT22;724;49.910;12.530;2022-11-12T06:31:08;2.20;1.00
1461;DHT22;724;49.910;12.530;2022-11-12T06:33:34;2.40;99.90
1461;DHT22;724;49.910;12.530;2022-11-12T06:36:05;2.50;99.90
1461;DHT22;724;49.910;12.530;2022-11-12T06:38:35;2.60;1.00
1461;DHT22;724;49.910;12.530;2022-11-12T06:41:02;2.70;1.00
1461;DHT22;724;49.910;12.530;2022-11-12T06:43:31;2.80;1.00
1461;DHT22;724;49.910;12.530;2022-11-12T06:45:59;2.90;1.00
1461;DHT22;724;49.910;12.530;2022-11-12T06:48:27;3.00;1.00
1461;DHT22;724;49.910;12.530;2022-11-12T06:50:54;3.10;1.00
1461;DHT22;724;49.910;12.530;2022-11-12T06:53:22;3.20;1.00
1461;DHT22;724;49.910;12.530;2022-11-12T06:55:51;3.30;1.00
1461;DHT22;724;49.910;12.530;2022-11-12T06:58:18;3.60;1.00
1461;DHT22;724;49.910;12.530;2022-11-12T07:00:44;3.60;1.00
1461;DHT22;724;49.910;12.530;2022-11-12T07:03:12;3.80;1.00
1461;DHT22;724;49.910;12.530;2022-11-12T07:05:40;3.80;1.00
1461;DHT22;724;49.910;12.530;2022-11-12T07:08:07;3.90;99.90
1461;DHT22;724;49.910;12.530;2022-11-12T07:10:35;4.20;99.90
1461;DHT22;724;49.910;12.530;2022-11-12T07:13:02;4.50;99.90
1461;DHT22;724;49.910;12.530;2022-11-12T07:15:29;5.10;99.90
1461;DHT22;724;49.910;12.530;2022-11-12T07:17:56;6.80;17.90
1461;DHT22;724;49.910;12.530;2022-11-12T07:20:23;7.80;1.00
1461;DHT22;724;49.910;12.530;2022-11-12T07:22:49;9.50;1.00
1461;DHT22;724;49.910;12.530;2022-11-12T07:25:16;10.40;1.00
1461;DHT22;724;49.910;12.530;2022-11-12T07:27:44;10.70;1.00
1461;DHT22;724;49.910;12.530;2022-11-12T07:30:12;10.90;99.90
1461;DHT22;724;49.910;12.530;2022-11-12T07:32:39;11.60;99.90
1461;DHT22;724;49.910;12.530;2022-11-12T07:35:06;11.90;99.90
1461;DHT22;724;49.910;12.530;2022-11-12T07:37:33;12.10;99.90
1461;DHT22;724;49.910;12.530;2022-11-12T07:40:01;12.80;99.90
1461;DHT22;724;49.910;12.530;2022-11-12T07:42:30;13.30;99.90
1461;DHT22;724;49.910;12.530;2022-11-12T07:44:59;14.20;99.90
1461;DHT22;724;49.910;12.530;2022-11-12T07:47:26;15.20;99.90
1461;DHT22;724;49.910;12.530;2022-11-12T07:49:52;16.20;99.90
1461;DHT22;724;49.910;12.530;2022-11-12T07:52:20;16.80;99.90
1461;DHT22;724;49.910;12.530;2022-11-12T07:54:47;17.00;99.90
1461;DHT22;724;49.910;12.530;2022-11-12T07:57:14;16.80;99.90
1461;DHT22;724;49.910;12.530;2022-11-12T07:59:40;16.40;99.90
1461;DHT22;724;49.910;12.530;2022-11-12T08:02:10;15.30;97.80
1461;DHT22;724;49.910;12.530;2022-11-12T08:04:36;15.00;92.30
1461;DHT22;724;49.910;12.530;2022-11-12T08:07:03;15.50;97.00
1461;DHT22;724;49.910;12.530;2022-11-12T08:09:30;16.70;93.30
1461;DHT22;724;49.910;12.530;2022-11-12T08:11:57;17.00;77.40
1461;DHT22;724;49.910;12.530;2022-11-12T08:14:24;16.30;53.00
1461;DHT22;724;49.910;12.530;2022-11-12T08:16:50;16.90;64.00
1461;DHT22;724;49.910;12.530;2022-11-12T08:19:18;18.50;59.70
1461;DHT22;724;49.910;12.530;2022-11-12T08:21:45;19.40;39.30
1461;DHT22;724;49.910;12.530;2022-11-12T08:24:12;20.20;25.00
1461;DHT22;724;49.910;12.530;2022-11-12T08:26:39;21.10;12.10
1461;DHT22;724;49.910;12.530;2022-11-12T08:29:06;22.00;1.00
1461;DHT22;724;49.910;12.530;2022-11-12T08:31:33;22.20;1.00
1461;DHT22;724;49.910;12.530;2022-11-12T08:34:00;22.90;1.00
1461;DHT22;724;49.910;12.530;2022-11-12T08:36:38;23.10;1.00
1461;DHT22;724;49.910;12.530;2022-11-12T08:39:06;23.80;1.00
1461;DHT22;724;49.910;12.530;2022-11-12T08:41:33;24.00;1.00
1461;DHT22;724;49.910;12.530;2022-11-12T08:44:00;23.40;1.00
1461;DHT22;724;49.910;12.530;2022-11-12T08:46:27;21.80;1.00
1461;DHT22;724;49.910;12.530;2022-11-12T08:48:54;21.30;1.00
1461;DHT22;724;49.910;12.530;2022-11-12T08:51:21;21.10;1.00
1461;DHT22;724;49.910;12.530;2022-11-12T08:53:49;21.70;1.00
1461;DHT22;724;49.910;12.530;2022-11-12T08:56:16;22.10;1.00
1461;DHT22;724;49.910;12.530;2022-11-12T08:58:43;23.00;1.00
1461;DHT22;724;49.910;12.530;2022-11-12T09:01:10;24.00;1.00
1461;DHT22;724;49.910;12.530;2022-11-12T09:03:36;24.20;1.00
1461;DHT22;724;49.910;12.530;2022-11-12T09:06:04;23.50;1.00
1461;DHT22;724;49.910;12.530;2022-11-12T09:08:33;23.60;1.00
1461;DHT22;724;49.910;12.530;2022-11-12T09:11:02;23.50;1.00
1461;DHT22;724;49.910;12.530;2022-11-12T09:13:29;23.60;1.00
1461;DHT22;724;49.910;12.530;2022-11-12T09:15:59;24.00;1.00
1461;DHT22;724;49.910;12.530;2022-11-12T09:18:27;23.80;1.00
1461;DHT22;724;49.910;12.530;2022-11-12T09:20:58;24.10;1.00
1461;DHT22;724;49.910;12.530;2022-11-12T09:23:25;24.30;1.00
1461;DHT22;724;49.910;12.530;2022-11-12T09:25:53;24.20;1.00
1461;DHT22;724;49.910;12.530;2022-11-12T09:28:22;24.40;1.00
1461;DHT22;724;49.910;12.530;2022-11-12T09:30:50;22.80;1.00
1461;DHT22;724;49.910;12.530;2022-11-12T09:33:18;22.90;1.00
1461;DHT22;724;49.910;12.530;2022-11-12T09:35:46;23.70;1.00
1461;DHT22;724;49.910;12.530;2022-11-12T09:38:14;24.50;1.00
1461;DHT22;724;49.910;12.530;2022-11-12T09:40:54;24.80;1.00
1461;DHT22;724;49.910;12.530;2022-11-12T09:43:28;24.40;1.00
1461;DHT22;724;49.910;12.530;2022-11-12T09:45:58;24.00;1.00
1461;DHT22;724;49.910;12.530;2022-11-12T09:48:33;23.60;1.00
1461;DHT22;724;49.910;12.530;2022-11-12T09:51:04;23.20;1.00
1461;DHT22;724;49.910;12.530;2022-11-12T09:53:35;22.30;1.00
1461;DHT22;724;49.910;12.530;2022-11-12T09:56:07;23.80;1.00
1461;DHT22;724;49.910;12.530;2022-11-12T09:58:37;24.90;1.00
1461;DHT22;724;49.910;12.530;2022-11-12T10:01:13;25.90;1.00
1461;DHT22;724;49.910;12.530;2022-11-12T10:03:48;24.50;1.00
1461;DHT22;724;49.910;12.530;2022-11-12T10:06:21;23.30;1.00
1461;DHT22;724;49.910;12.530;2022-11-12T10:08:51;23.00;1.00
1461;DHT22;724;49.910;12.530;2022-11-12T10:11:42;22.90;1.00
1461;DHT22;724;49.910;12.530;2022-11-12T10:14:55;23.60;1.00
1461;DHT22;724;49.910;12.530;2022-11-12T10:17:48;23.30;1.00
1461;DHT22;724;49.910;12.530;2022-11-12T10:20:19;24.30;1.00
1461;DHT22;724;49.910;12.530;2022-11-12T10:23:03;25.50;1.00
1461;DHT22;724;49.910;12.530;2022-11-12T10:25:32;24.70;1.00
1461;DHT22;724;49.910;12.530;2022-11-12T10:28:01;26.50;1.00
1461;DHT22;724;49.910;12.530;2022-11-12T10:30:35;26.40;1.00
1461;DHT22;724;49.910;12.530;2022-11-12T10:33:02;26.80;1.00
1461;DHT22;724;49.910;12.530;2022-11-12T10:35:29;27.20;1.00
1461;DHT22;724;49.910;12.530;2022-11-12T10:37:58;27.80;1.00
1461;DHT22;724;49.910;12.530;2022-11-12T10:40:30;28.00;1.00
1461;DHT22;724;49.910;12.530;2022-11-12T10:42:58;27.40;1.00
1461;DHT22;724;49.910;12.530;2022-11-12T10:45:25;27.70;1.00
1461;DHT22;724;49.910;12.530;2022-11-12T10:47:54;27.80;1.00
1461;DHT22;724;49.910;12.530;2022-11-12T10:50:24;27.20;1.00
1461;DHT22;724;49.910;12.530;2022-11-12T10:52:56;27.90;1.00
1461;DHT22;724;49.910;12.530;2022-11-12T10:55:26;28.50;1.00
1461;DHT22;724;49.910;12.530;2022-11-12T10:58:13;25.50;1.00
1461;DHT22;724;49.910;12.530;2022-11-12T11:00:59;23.80;1.00
1461;DHT22;724;49.910;12.530;2022-11-12T11:03:30;25.50;1.00
1461;DHT22;724;49.910;12.530;2022-11-12T11:06:00;24.80;1.00
1461;DHT22;724;49.910;12.530;2022-11-12T11:08:38;25.30;1.00
1461;DHT22;724;49.910;12.530;2022-11-12T11:11:23;25.30;1.00
1461;DHT22;724;49.910;12.530;2022-11-12T11:13:51;24.30;1.00
1461;DHT22;724;49.910;12.530;2022-11-12T11:16:21;24.60;1.00
1461;DHT22;724;49.910;12.530;2022-11-12T11:18:52;24.60;1.00
1461;DHT22;724;49.910;12.530;2022-11-12T11:21:29;23.50;1.00
1461;DHT22;724;49.910;12.530;2022-11-12T11:27:01;25.90;1.00
1461;DHT22;724;49.910;12.530;2022-11-12T11:29:37;25.70;1.00
1461;DHT22;724;49.910;12.530;2022-11-12T11:32:25;25.80;1.00
1461;DHT22;724;49.910;12.530;2022-11-12T11:35:06;25.90;1.00
1461;DHT22;724;49.910;12.530;2022-11-12T11:37:43;25.50;1.00
1461;DHT22;724;49.910;12.530;2022-11-12T11:40:19;25.60;1.00
1461;DHT22;724;49.910;12.530;2022-11-12T11:43:01;25.00;1.00
1461;DHT22;724;49.910;12.530;2022-11-12T11:45:48;24.20;1.00
1461;DHT22;724;49.910;12.530;2022-11-12T11:48:24;23.40;1.00
1461;DHT22;724;49.910;12.530;2022-11-12T11:51:01;23.40;1.00
1461;DHT22;724;49.910;12.530;2022-11-12T11:53:37;23.90;1.00
1461;DHT22;724;49.910;12.530;2022-11-12T11:56:13;23.30;1.00
1461;DHT22;724;49.910;12.530;2022-11-12T11:59:02;22.60;1.00
1461;DHT22;724;49.910;12.530;2022-11-12T12:01:38;21.60;1.00
1461;DHT22;724;49.910;12.530;2022-11-12T12:04:31;20.40;1.00
1461;DHT22;724;49.910;12.530;2022-11-12T12:07:14;20.30;1.00
1461;DHT22;724;49.910;12.530;2022-11-12T12:09:47;20.20;1.00
1461;DHT22;724;49.910;12.530;2022-11-12T12:12:29;19.90;1.00
1461;DHT22;724;49.910;12.530;2022-11-12T12:15:18;19.90;1.00
1461;DHT22;724;49.910;12.530;2022-11-12T12:17:58;19.90;1.00
1461;DHT22;724;49.910;12.530;2022-11-12T12:20:36;19.70;1.00
1461;DHT22;724;49.910;12.530;2022-11-12T12:23:16;19.40;1.00
1461;DHT22;724;49.910;12.530;2022-11-12T12:25:45;19.40;1.00
1461;DHT22;724;49.910;12.530;2022-11-12T12:28:19;19.30;1.00
1461;DHT22;724;49.910;12.530;2022-11-12T12:30:52;19.60;1.00
1461;DHT22;724;49.910;12.530;2022-11-12T12:33:28;19.50;1.00
1461;DHT22;724;49.910;12.530;2022-11-12T12:36:00;19.50;1.00
1461;DHT22;724;49.910;12.530;2022-11-12T12:38:36;19.20;1.00
1461;DHT22;724;49.910;12.530;2022-11-12T12:41:10;19.00;1.00
1461;DHT22;724;49.910;12.530;2022-11-12T12:43:45;18.70;1.00
1461;DHT22;724;49.910;12.530;2022-11-12T12:46:14;18.70;1.00
1461;DHT22;724;49.910;12.530;2022-11-12T12:48:42;18.50;1.00
1461;DHT22;724;49.910;12.530;2022-11-12T12:51:10;18.80;1.00
1461;DHT22;724;49.910;12.530;2022-11-12T12:53:38;18.60;1.00
1461;DHT22;724;49.910;12.530;2022-11-12T12:56:06;18.40;1.00
1461;DHT22;724;49.910;12.530;2022-11-12T12:58:53;18.30;1.00
1461;DHT22;724;49.910;12.530;2022-11-12T13:01:28;18.10;1.00
1461;DHT22;724;49.910;12.530;2022-11-12T13:03:57;18.20;1.00
1461;DHT22;724;49.910;12.530;2022-11-12T13:06:30;18.50;1.00
1461;DHT22;724;49.910;12.530;2022-11-12T13:09:05;18.30;1.00
1461;DHT22;724;49.910;12.530;2022-11-12T13:11:52;17.90;1.00
1461;DHT22;724;49.910;12.530;2022-11-12T13:14:52;17.90;1.00
1461;DHT22;724;49.910;12.530;2022-11-12T13:17:46;17.80;1.00
1461;DHT22;724;49.910;12.530;2022-11-12T13:20:40;18.00;1.00
1461;DHT22;724;49.910;12.530;2022-11-12T13:23:44;17.90;1.00
1461;DHT22;724;49.910;12.530;2022-11-12T13:26:47;17.90;1.00
1461;DHT22;724;49.910;12.530;2022-11-12T13:29:21;18.30;1.00
1461;DHT22;724;49.910;12.530;2022-11-12T13:31:48;17.60;1.00
1461;DHT22;724;49.910;12.530;2022-11-12T13:34:20;17.60;1.00
1461;DHT22;724;49.910;12.530;2022-11-12T13:36:54;17.50;1.00
1461;DHT22;724;49.910;12.530;2022-11-12T13:39:24;17.20;1.00
1461;DHT22;724;49.910;12.530;2022-11-12T13:41:56;17.10;1.00
1461;DHT22;724;49.910;12.530;2022-11-12T13:44:40;17.10;1.00
1461;DHT22;724;49.910;12.530;2022-11-12T13:47:11;17.20;1.00
1461;DHT22;724;49.910;12.530;2022-11-12T13:49:39;17.10;1.00
1461;DHT22;724;49.910;12.530;2022-11-12T13:52:06;16.90;1.00
1461;DHT22;724;49.910;12.530;2022-11-12T13:54:36;16.60;1.00
1461;DHT22;724;49.910;12.530;2022-11-12T13:57:25;16.60;1.00
1461;DHT22;724;49.910;12.530;2022-11-12T14:00:24;16.50;1.00
1461;DHT22;724;49.910;12.530;2022-11-12T14:02:55;16.40;1.00
1461;DHT22;724;49.910;12.530;2022-11-12T14:05:24;16.10;1.00
1461;DHT22;724;49.910;12.530;2022-11-12T14:08:12;16.30;1.00
1461;DHT22;724;49.910;12.530;2022-11-12T14:10:53;16.10;1.00
1461;DHT22;724;49.910;12.530;2022-11-12T14:13:39;15.80;1.00
1461;DHT22;724;49.910;12.530;2022-11-12T14:16:21;15.80;1.00
1461;DHT22;724;49.910;12.530;2022-11-12T14:19:02;15.80;1.00
1461;DHT22;724;49.910;12.530;2022-11-12T14:21:36;15.60;1.00
1461;DHT22;724;49.910;12.530;2022-11-12T14:24:10;15.30;1.00
1461;DHT22;724;49.910;12.530;2022-11-12T14:26:40;15.20;1.00
1461;DHT22;724;49.910;12.530;2022-11-12T14:29:15;15.00;1.00
1461;DHT22;724;49.910;12.530;2022-11-12T14:31:43;14.80;1.00
1461;DHT22;724;49.910;12.530;2022-11-12T14:34:21;14.60;1.00
1461;DHT22;724;49.910;12.530;2022-11-12T14:36:49;14.50;1.00
1461;DHT22;724;49.910;12.530;2022-11-12T14:39:20;14.40;1.00
1461;DHT22;724;49.910;12.530;2022-11-12T14:41:49;14.20;1.00
1461;DHT22;724;49.910;12.530;2022-11-12T14:44:19;14.00;1.00
1461;DHT22;724;49.910;12.530;2022-11-12T14:46:48;13.70;1.00
1461;DHT22;724;49.910;12.530;2022-11-12T14:49:29;13.40;1.00
1461;DHT22;724;49.910;12.530;2022-11-12T14:52:04;13.10;1.00
1461;DHT22;724;49.910;12.530;2022-11-12T14:54:35;12.90;1.00
1461;DHT22;724;49.910;12.530;2022-11-12T14:57:06;12.50;1.00
1461;DHT22;724;49.910;12.530;2022-11-12T14:59:38;12.30;1.00
1461;DHT22;724;49.910;12.530;2022-11-12T15:02:09;12.20;1.00
1461;DHT22;724;49.910;12.530;2022-11-12T15:04:40;12.20;1.00
1461;DHT22;724;49.910;12.530;2022-11-12T15:07:25;11.80;1.00
1461;DHT22;724;49.910;12.530;2022-11-12T15:09:52;11.40;1.00
1461;DHT22;724;49.910;12.530;2022-11-12T15:12:22;11.00;1.00
1461;DHT22;724;49.910;12.530;2022-11-12T15:14:51;10.60;1.00
1461;DHT22;724;49.910;12.530;2022-11-12T15:17:27;10.70;1.00
1461;DHT22;724;49.910;12.530;2022-11-12T15:20:00;10.50;1.00
1461;DHT22;724;49.910;12.530;2022-11-12T15:22:28;10.10;1.00
1461;DHT22;724;49.910;12.530;2022-11-12T15:24:55;10.00;1.00
1461;DHT22;724;49.910;12.530;2022-11-12T15:27:36;9.80;1.00
1461;DHT22;724;49.910;12.530;2022-11-12T15:30:18;9.60;1.00
1461;DHT22;724;49.910;12.530;2022-11-12T15:32:48;9.40;1.00
1461;DHT22;724;49.910;12.530;2022-11-12T15:38:04;9.30;1.00
1461;DHT22;724;49.910;12.530;2022-11-12T15:40:36;9.10;1.00
1461;DHT22;724;49.910;12.530;2022-11-12T15:43:13;9.00;1.00
1461;DHT22;724;49.910;12.530;2022-11-12T15:45:41;8.70;1.00
1461;DHT22;724;49.910;12.530;2022-11-12T15:48:09;8.60;1.00
1461;DHT22;724;49.910;12.530;2022-11-12T15:50:37;8.40;1.00
1461;DHT22;724;49.910;12.530;2022-11-12T15:53:04;8.30;1.00
1461;DHT22;724;49.910;12.530;2022-11-12T15:55:31;8.20;1.00
1461;DHT22;724;49.910;12.530;2022-11-12T15:57:58;8.10;1.00
1461;DHT22;724;49.910;12.530;2022-11-12T16:00:30;8.00;1.00
1461;DHT22;724;49.910;12.530;2022-11-12T16:03:07;7.90;1.00
1461;DHT22;724;49.910;12.530;2022-11-12T16:05:36;7.80;1.00
1461;DHT22;724;49.910;12.530;2022-11-12T16:08:03;7.80;1.00
1461;DHT22;724;49.910;12.530;2022-11-12T16:10:31;7.60;1.00
1461;DHT22;724;49.910;12.530;2022-11-12T16:12:58;7.50;1.00
1461;DHT22;724;49.910;12.530;2022-11-12T16:15:27;7.40;1.00
1461;DHT22;724;49.910;12.530;2022-11-12T16:17:54;7.40;1.00
1461;DHT22;724;49.910;12.530;2022-11-12T16:20:23;7.30;1.00
1461;DHT22;724;49.910;12.530;2022-11-12T16:22:50;7.30;1.00
1461;DHT22;724;49.910;12.530;2022-11-12T16:25:18;7.20;1.00
1461;DHT22;724;49.910;12.530;2022-11-12T16:27:46;7.10;6.30
1461;DHT22;724;49.910;12.530;2022-11-12T16:30:14;7.00;29.60
1461;DHT22;724;49.910;12.530;2022-11-12T16:32:47;6.90;63.40
1461;DHT22;724;49.910;12.530;2022-11-12T16:35:14;6.90;97.90
1461;DHT22;724;49.910;12.530;2022-11-12T16:37:43;6.70;99.90
1461;DHT22;724;49.910;12.530;2022-11-12T16:40:12;6.60;99.90
1461;DHT22;724;49.910;12.530;2022-11-12T16:42:41;6.60;99.90
1461;DHT22;724;49.910;12.530;2022-11-12T16:45:10;6.50;99.90
1461;DHT22;724;49.910;12.530;2022-11-12T16:47:42;6.50;99.90
1461;DHT22;724;49.910;12.530;2022-11-12T16:50:12;6.50;99.90
1461;DHT22;724;49.910;12.530;2022-11-12T16:52:40;6.40;99.90